Dinsdale, Iowa
Current Conditions -  °F | °C
As of 5:54 PM on Sunday 21 Dec 2014 (Local Time) from KALO Reporting Station
Haze Haze  
Wind Chill: 30°   Ceiling: 600
Heat Index: 38°   Visibility: 4mi
Dew Point: 37°   Wind: 14mph
Humidity: 97%   Direction: 160°SSE
Pressure: 29.84"   Gusts: NA
Location:  42.2885°N, 92.5843°W
Report Text: KALO 212354Z 16012KT 4SM BR BKN006 OVC011 03/03 A2984 RMK AO2 SLP113 60000 T00330028 10039 20033 50000
Loading
Personal Weather Stations






























Interactive Weather Map New forecast layout! Learn more

10-Day Weather Forecast

Advertisements
Track Severe Weather on mobile